Time;durP1;ratioP1;P1;durP2;ratioP2;P2;SDS_P1;SDS_P2;PMS_P1;PMS_P2;Temp;Humidity;BMP_temperature;BMP_pressure;BME280_temperature;BME280_humidity;BME280_pressure;Samples;Min_cycle;Max_cycle;Signal;HPM_P1;HPM_P2
2021/12/21 00:01:36;;;;;;;408.00;294.00;;;;;;;23.42;36.94;101891.56;5065337;28;20041;-43
2021/12/21 00:04:04;;;;;;;405.75;291.55;;;;;;;23.38;36.95;101884.47;5065213;28;20036;-43
2021/12/21 00:06:33;;;;;;;397.75;284.42;;;;;;;23.27;37.14;101898.09;5065218;28;20032;-43
2021/12/21 00:09:01;;;;;;;414.33;295.10;;;;;;;23.31;36.90;101902.59;5064942;28;20028;-41
2021/12/21 00:11:30;;;;;;;413.48;298.08;;;;;;;23.30;36.80;101889.47;5063419;28;20478;-41
2021/12/21 00:14:12;;;;;;;412.70;293.50;;;;;;;23.25;37.37;101894.56;5064196;28;20032;-42
2021/12/21 00:16:44;;;;;;;415.15;302.58;;;;;;;23.27;37.52;101894.63;5064963;28;20097;-41
2021/12/21 00:22:07;;;;;;;416.85;304.27;;;;;;;23.29;37.17;101898.16;5058012;28;20076;-42
2021/12/21 00:24:45;;;;;;;412.17;299.63;;;;;;;23.30;37.28;101892.09;5064736;28;20025;-42
2021/12/21 00:27:14;;;;;;;414.48;300.88;;;;;;;23.32;37.09;101891.28;5048658;28;20032;-42
2021/12/21 00:29:43;;;;;;;430.20;307.55;;;;;;;23.21;37.42;101887.47;5064506;28;20514;-42
2021/12/21 00:32:12;;;;;;;425.00;304.73;;;;;;;23.18;37.43;101879.47;5064036;28;20028;-42
2021/12/21 00:34:40;;;;;;;424.55;306.08;;;;;;;23.20;37.39;101889.19;5064238;28;20145;-41
2021/12/21 00:37:09;;;;;;;407.92;303.85;;;;;;;23.16;37.41;101886.38;5063007;28;20035;-41
2021/12/21 00:39:38;;;;;;;416.45;307.15;;;;;;;23.21;37.38;101877.88;5062573;28;20036;-42
2021/12/21 00:42:06;;;;;;;423.45;306.35;;;;;;;23.21;37.43;101882.22;5064256;28;20040;-42
2021/12/21 00:44:35;;;;;;;419.33;305.38;;;;;;;23.16;37.65;101873.31;5063218;28;20115;-42
2021/12/21 00:47:04;;;;;;;428.48;313.35;;;;;;;23.18;37.74;101872.50;5064055;28;20036;-42
2021/12/21 00:49:35;;;;;;;414.75;304.98;;;;;;;23.14;37.57;101870.66;5064304;28;20107;-42
2021/12/21 00:52:03;;;;;;;419.80;307.83;;;;;;;23.18;37.88;101864.66;5064582;28;20488;-42
2021/12/21 00:54:32;;;;;;;426.58;309.63;;;;;;;23.16;37.62;101863.75;5063725;28;20025;-42
2021/12/21 00:57:00;;;;;;;422.83;310.27;;;;;;;23.22;37.70;101860.44;5063798;28;20017;-42
2021/12/21 00:59:29;;;;;;;436.63;322.13;;;;;;;23.17;37.93;101862.88;5063803;28;20380;-42
2021/12/21 01:01:57;;;;;;;427.35;314.55;;;;;;;23.16;37.66;101848.03;5063942;28;20105;-42
2021/12/21 01:04:33;;;;;;;423.65;314.10;;;;;;;23.14;37.63;101854.94;5062224;28;20470;-43
2021/12/21 01:07:09;;;;;;;429.77;307.98;;;;;;;23.15;37.92;101853.19;5063713;28;20575;-42
2021/12/21 01:18:10;;;;;;;418.83;302.90;;;;;;;23.17;37.67;101868.09;5063928;28;20043;-41
2021/12/21 01:20:35;;;;;;;415.33;303.33;;;;;;;23.15;37.52;101880.28;5063581;28;20044;-42
2021/12/21 01:26:02;;;;;;;398.48;289.15;;;;;;;23.15;37.61;101866.28;5063524;28;20036;-41
2021/12/21 01:36:52;;;;;;;383.10;282.77;;;;;;;23.13;37.21;101850.56;5063479;28;20119;-42
2021/12/21 01:49:35;;;;;;;383.38;275.30;;;;;;;23.11;37.10;101854.84;5063343;28;20125;-42
2021/12/21 01:49:55;;;;;;;377.38;267.23;;;;;;;23.13;37.05;101850.56;5058278;28;20409;-42
2021/12/21 01:52:25;;;;;;;368.05;260.55;;;;;;;23.11;37.27;101848.72;5063255;28;20031;-42
2021/12/21 01:54:55;;;;;;;349.50;252.65;;;;;;;23.05;37.24;101854.66;5062896;28;20093;-42
2021/12/21 01:57:24;;;;;;;351.73;249.77;;;;;;;22.87;37.00;101834.03;5062187;28;20385;-43
2021/12/21 01:59:52;;;;;;;346.20;247.27;;;;;;;23.12;36.93;101860.94;5063094;28;20028;-42
2021/12/21 02:02:21;;;;;;;335.25;241.23;;;;;;;23.13;36.56;101854.88;5062779;28;20460;-42
2021/12/21 02:04:50;;;;;;;319.35;228.77;;;;;;;23.06;37.00;101862.56;5062719;28;20128;-42
2021/12/21 02:07:19;;;;;;;318.35;226.20;;;;;;;23.10;36.77;101858.31;5062769;28;20020;-42
2021/12/21 02:09:48;;;;;;;322.23;228.40;;;;;;;23.15;36.54;101868.91;5062897;28;20215;-42
2021/12/21 02:12:18;;;;;;;301.38;218.73;;;;;;;23.09;36.75;101866.09;5062817;28;20779;-43
2021/12/21 02:14:56;;;;;;;309.15;216.98;;;;;;;23.07;36.70;101863.44;5062946;28;20115;-42
2021/12/21 02:20:17;;;;;;;270.85;197.73;;;;;;;23.12;36.24;101860.94;5063162;28;20029;-43
2021/12/21 02:22:53;;;;;;;272.63;196.25;;;;;;;23.06;36.48;101859.03;5062562;28;20032;-42
2021/12/21 02:27:59;;;;;;;259.25;192.77;;;;;;;23.10;36.42;101863.53;5063286;28;20048;-42
2021/12/21 02:30:28;;;;;;;255.85;181.80;;;;;;;23.11;35.93;101860.09;5063025;28;20519;-43
2021/12/21 02:32:57;;;;;;;257.40;182.27;;;;;;;23.09;36.25;101864.38;5063102;28;20040;-42
2021/12/21 02:35:26;;;;;;;247.02;174.98;;;;;;;23.03;36.27;101867.69;5062496;28;20032;-42
2021/12/21 02:37:55;;;;;;;255.15;178.65;;;;;;;23.11;36.12;101865.31;5062758;28;20268;-42
2021/12/21 02:40:23;;;;;;;242.73;172.95;;;;;;;23.11;35.99;101859.19;5062606;28;20036;-42
2021/12/21 02:42:52;;;;;;;231.25;164.98;;;;;;;23.15;35.65;101858.44;5063334;28;20066;-42
2021/12/21 02:45:20;;;;;;;225.18;161.40;;;;;;;23.05;36.08;101865.13;5062701;28;20036;-42
2021/12/21 02:47:49;;;;;;;224.10;160.65;;;;;;;23.10;35.78;101862.63;5062707;28;20025;-42
2021/12/21 02:50:18;;;;;;;218.82;155.02;;;;;;;23.12;35.82;101866.19;5062655;28;20026;-43
2021/12/21 02:52:46;;;;;;;215.40;155.82;;;;;;;23.05;35.52;101857.25;5062252;28;20445;-43
2021/12/21 02:55:16;;;;;;;217.23;150.50;;;;;;;22.95;35.82;101858.69;5062365;28;20033;-42
2021/12/21 02:57:44;;;;;;;210.18;149.82;;;;;;;23.07;35.68;101860.81;5061155;28;20505;-42
2021/12/21 03:00:13;;;;;;;200.80;144.93;;;;;;;22.89;35.88;101864.63;5062941;28;20028;-42
2021/12/21 03:02:42;;;;;;;198.07;143.23;;;;;;;23.01;35.83;101871.09;5062761;28;20475;-42
2021/12/21 03:05:11;;;;;;;200.73;143.27;;;;;;;23.02;35.68;101886.84;5062690;28;20118;-42
2021/12/21 03:10:13;;;;;;;194.23;136.57;;;;;;;23.04;35.69;101894.75;5065350;28;20048;-42
2021/12/21 03:15:23;;;;;;;194.70;137.68;;;;;;;22.85;35.62;101846.19;5066643;28;20536;-42
2021/12/21 03:17:52;;;;;;;187.43;133.73;;;;;;;23.03;35.19;101877.25;5066356;28;20036;-42
2021/12/21 03:20:22;;;;;;;188.13;133.90;;;;;;;23.03;35.35;101872.03;5066746;28;20029;-42
2021/12/21 03:22:52;;;;;;;177.57;129.95;;;;;;;23.02;35.38;101863.31;5066055;28;20032;-42
2021/12/21 03:25:20;;;;;;;184.65;131.73;;;;;;;22.88;35.54;101868.09;5066274;28;20032;-43
2021/12/21 03:27:49;;;;;;;178.75;128.65;;;;;;;22.96;35.28;101870.06;5065852;28;20032;-42
2021/12/21 03:30:18;;;;;;;175.10;127.03;;;;;;;22.94;35.67;101875.25;5065935;28;20028;-42
2021/12/21 03:32:46;;;;;;;178.52;126.07;;;;;;;22.92;35.58;101862.13;5065475;28;20032;-43
2021/12/21 03:35:15;;;;;;;171.98;125.07;;;;;;;22.97;35.34;101861.38;5065625;28;20342;-43
2021/12/21 03:37:44;;;;;;;178.20;126.68;;;;;;;22.91;35.62;101860.34;5065571;28;20024;-42
2021/12/21 03:40:12;;;;;;;177.82;122.95;;;;;;;23.02;35.45;101857.16;5065761;28;20027;-42
2021/12/21 03:42:41;;;;;;;183.70;125.72;;;;;;;22.99;35.27;101860.59;5065752;28;20074;-42
2021/12/21 03:45:09;;;;;;;172.57;122.75;;;;;;;22.95;35.34;101863.06;5065590;28;20052;-43
2021/12/21 03:47:38;;;;;;;172.88;122.07;;;;;;;22.95;35.25;101866.56;5065361;28;20040;-42
2021/12/21 03:50:14;;;;;;;162.55;119.75;;;;;;;22.90;35.44;101850.72;5065522;28;20025;-42
2021/12/21 03:52:41;;;;;;;173.90;121.20;;;;;;;22.92;35.34;101850.75;5065365;28;20079;-43
2021/12/21 03:55:10;;;;;;;165.57;120.72;;;;;;;22.96;35.12;101847.41;5063663;28;20036;-42
2021/12/21 03:57:38;;;;;;;160.95;117.40;;;;;;;22.86;35.53;101843.59;5065383;28;20017;-42
2021/12/21 04:00:09;;;;;;;174.57;122.05;;;;;;;22.88;35.31;101836.69;5065171;28;20037;-44
2021/12/21 04:02:38;;;;;;;163.10;117.97;;;;;;;22.90;35.36;101836.75;5064641;28;20401;-43
2021/12/21 04:05:07;;;;;;;167.10;116.30;;;;;;;22.96;35.03;101820.34;5064819;28;20033;-43
2021/12/21 04:07:36;;;;;;;164.60;118.18;;;;;;;22.96;35.40;101821.22;5064806;28;20028;-42
2021/12/21 04:10:05;;;;;;;166.23;115.55;;;;;;;22.96;34.81;101822.97;5064266;28;20058;-42
2021/12/21 04:12:35;;;;;;;157.70;113.60;;;;;;;23.00;35.16;101820.50;5064990;28;20033;-42
2021/12/21 04:15:03;;;;;;;154.07;113.28;;;;;;;23.03;35.21;101824.91;5065564;28;20046;-42
2021/12/21 04:17:33;;;;;;;164.90;114.40;;;;;;;23.06;34.82;101819.78;5064893;28;20513;-42
2021/12/21 04:20:02;;;;;;;162.48;114.78;;;;;;;23.00;34.95;101820.50;5065221;28;20039;-42
2021/12/21 04:22:31;;;;;;;156.05;111.70;;;;;;;23.01;34.74;101810.91;5064757;28;20510;-42
2021/12/21 04:25:00;;;;;;;154.88;111.43;;;;;;;22.88;34.83;101805.28;5064444;28;20059;-43
2021/12/21 04:27:29;;;;;;;160.35;113.13;;;;;;;22.83;35.06;101825.22;5064626;28;20107;-42
2021/12/21 04:29:57;;;;;;;154.90;111.55;;;;;;;22.99;34.72;101820.47;5064511;28;20249;-42
2021/12/21 04:32:26;;;;;;;155.80;108.80;;;;;;;22.89;34.83;101807.06;5064296;28;20109;-42
2021/12/21 04:34:54;;;;;;;153.02;109.25;;;;;;;22.92;34.66;101786.25;5062988;28;20428;-42
2021/12/21 04:37:25;;;;;;;151.82;106.95;;;;;;;22.82;35.13;101772.84;5064630;28;20027;-42
2021/12/21 04:40:01;;;;;;;149.27;108.65;;;;;;;22.94;34.82;101774.94;5064410;28;20397;-42
2021/12/21 04:42:30;;;;;;;149.45;105.10;;;;;;;22.82;34.94;101778.97;5064534;28;20429;-42
2021/12/21 04:44:58;;;;;;;156.05;108.80;;;;;;;22.94;34.71;101788.88;5064472;28;20031;-42
2021/12/21 04:47:27;;;;;;;155.43;107.50;;;;;;;22.87;34.72;101787.81;5064578;28;20035;-43
2021/12/21 04:49:56;;;;;;;147.75;105.32;;;;;;;22.80;35.33;101783.25;5064864;28;20032;-42
2021/12/21 04:52:24;;;;;;;155.30;107.88;;;;;;;22.87;34.70;101777.34;5063869;28;20557;-43
2021/12/21 04:54:54;;;;;;;147.05;104.20;;;;;;;22.93;34.79;101776.66;5064371;28;20477;-42
2021/12/21 04:57:23;;;;;;;150.20;107.95;;;;;;;22.96;34.65;101786.34;5062778;28;20036;-42
2021/12/21 04:59:52;;;;;;;146.98;104.10;;;;;;;22.89;34.70;101790.50;5064243;28;20111;-42
2021/12/21 05:02:20;;;;;;;146.65;102.88;;;;;;;22.81;35.20;101782.41;5064050;28;20478;-42
2021/12/21 05:04:49;;;;;;;147.98;107.75;;;;;;;22.90;35.07;101782.69;5063576;28;20044;-42
2021/12/21 05:07:22;;;;;;;156.35;111.07;;;;;;;22.94;34.79;101785.41;5063964;28;20086;-41
2021/12/21 05:09:57;;;;;;;148.40;106.43;;;;;;;22.96;34.99;101778.50;5063887;28;20417;-42
2021/12/21 05:12:26;;;;;;;156.38;108.72;;;;;;;22.87;35.05;101793.06;5063360;28;20094;-42
2021/12/21 05:14:55;;;;;;;146.60;104.78;;;;;;;22.76;34.76;101750.88;5063698;28;20092;-41
2021/12/21 05:17:24;;;;;;;139.98;105.55;;;;;;;22.85;34.93;101780.78;5062068;28;20036;-42
2021/12/21 05:19:53;;;;;;;146.23;104.97;;;;;;;22.83;34.97;101775.50;5063726;28;20460;-41
2021/12/21 05:22:23;;;;;;;138.70;101.45;;;;;;;22.85;35.04;101768.56;5063750;28;20028;-42
2021/12/21 05:24:51;;;;;;;144.98;105.15;;;;;;;22.80;35.17;101756.19;5061839;28;20036;-41
2021/12/21 05:27:21;;;;;;;144.30;104.43;;;;;;;22.81;35.20;101761.50;5063323;28;20032;-42
2021/12/21 05:29:49;;;;;;;149.07;105.32;;;;;;;22.80;34.91;101757.09;5063065;28;20025;-42
2021/12/21 05:32:18;;;;;;;156.07;105.63;;;;;;;22.82;34.96;101771.13;5063352;28;20356;-42
2021/12/21 05:34:46;;;;;;;145.18;103.95;;;;;;;22.81;34.91;101781.50;5063452;28;20110;-42
2021/12/21 05:37:15;;;;;;;148.35;104.47;;;;;;;22.85;34.64;101779.03;5063808;28;20079;-42
2021/12/21 05:39:55;;;;;;;145.98;103.40;;;;;;;22.88;34.71;101773.03;5063650;28;20024;-42
2021/12/21 05:42:24;;;;;;;152.07;105.75;;;;;;;22.88;34.78;101781.75;5063511;28;20038;-42
2021/12/21 05:44:53;;;;;;;153.68;108.50;;;;;;;22.89;34.77;101796.59;5063273;28;20367;-42
2021/12/21 05:47:22;;;;;;;152.65;107.03;;;;;;;22.88;34.93;101786.97;5062962;28;20477;-43
2021/12/21 05:49:51;;;;;;;151.43;104.90;;;;;;;22.90;34.98;101795.78;5063371;28;20394;-42
2021/12/21 05:52:19;;;;;;;157.38;102.32;;;;;;;22.79;34.86;101807.63;5062892;28;20028;-42
2021/12/21 05:54:49;;;;;;;155.88;106.20;;;;;;;22.87;34.74;101803.53;5063055;28;20071;-42
2021/12/21 05:57:18;;;;;;;151.90;106.50;;;;;;;22.84;34.59;101798.19;5062855;28;20383;-42
2021/12/21 05:59:46;;;;;;;149.05;103.57;;;;;;;22.85;34.90;101814.78;5063209;28;20029;-42
2021/12/21 06:02:17;;;;;;;158.27;107.45;;;;;;;22.85;34.69;101817.41;5063245;28;20073;-43
2021/12/21 06:04:45;;;;;;;151.75;107.18;;;;;;;22.82;34.74;101820.81;5061643;28;20077;-42
2021/12/21 06:07:14;;;;;;;148.90;106.90;;;;;;;22.87;34.82;101820.97;5063652;28;20416;-42
2021/12/21 06:09:45;;;;;;;151.13;103.60;;;;;;;22.90;34.80;101807.97;5062888;28;20057;-42
2021/12/21 06:12:31;;;;;;;153.73;105.95;;;;;;;22.82;34.92;101796.38;5061658;28;20484;-42
2021/12/21 06:25:59;;;;;;;152.18;108.05;;;;;;;22.90;34.59;101807.97;5053229;28;20044;-42
2021/12/21 06:28:28;;;;;;;152.57;109.00;;;;;;;22.89;34.83;101807.06;5063270;28;20090;-42
2021/12/21 06:30:56;;;;;;;155.75;108.65;;;;;;;22.80;34.95;101801.56;5062650;28;20105;-42
2021/12/21 06:33:25;;;;;;;156.10;108.32;;;;;;;22.82;34.92;101796.38;5062733;28;20486;-42
2021/12/21 06:35:53;;;;;;;148.60;106.45;;;;;;;22.86;34.53;101787.78;5062928;28;20037;-43
2021/12/21 06:38:22;;;;;;;154.77;109.63;;;;;;;22.84;34.35;101792.94;5048096;28;20930;-42
2021/12/21 06:40:50;;;;;;;151.35;107.82;;;;;;;22.77;34.65;101785.78;5063728;28;20074;-42
2021/12/21 06:43:19;;;;;;;154.43;106.35;;;;;;;22.86;34.63;101795.63;5066793;28;20038;-42
2021/12/21 06:45:55;;;;;;;145.15;105.47;;;;;;;22.83;34.37;101787.69;5067008;28;20485;-42
2021/12/21 06:53:42;;;;;;;153.10;107.60;;;;;;;22.73;34.93;101776.03;5066651;28;20365;-41
2021/12/21 06:56:11;;;;;;;153.77;106.82;;;;;;;22.76;34.81;101766.56;5066538;28;20029;-42
2021/12/21 06:58:40;;;;;;;157.07;105.45;;;;;;;22.75;34.69;101766.53;5066817;28;20393;-42
2021/12/21 07:01:08;;;;;;;153.27;107.07;;;;;;;22.73;34.91;101765.59;5065395;28;20031;-41
2021/12/21 07:03:37;;;;;;;151.13;104.70;;;;;;;22.74;34.64;101769.97;5066457;28;20078;-42
2021/12/21 07:06:06;;;;;;;154.23;106.68;;;;;;;22.79;34.53;101777.97;5065972;28;20036;-42
2021/12/21 07:08:45;;;;;;;152.57;107.30;;;;;;;22.68;34.73;101769.78;5065749;28;20429;-42
2021/12/21 07:11:24;;;;;;;159.60;110.93;;;;;;;22.71;34.77;101759.41;5065420;28;20079;-42
2021/12/21 07:19:28;;;;;;;149.38;106.15;;;;;;;22.83;34.27;101751.97;5061672;28;20047;-43
2021/12/21 07:21:57;;;;;;;154.60;110.00;;;;;;;22.78;34.75;101753.53;5066152;28;20035;-42
2021/12/21 07:24:27;;;;;;;152.30;109.78;;;;;;;22.88;34.27;101760.81;5066027;28;20078;-42
2021/12/21 07:26:55;;;;;;;159.02;109.22;;;;;;;22.78;34.50;101758.78;5064693;28;20032;-42
2021/12/21 07:29:25;;;;;;;156.48;108.13;;;;;;;22.81;34.21;101751.03;5064534;28;20071;-42
2021/12/21 07:31:53;;;;;;;159.63;108.75;;;;;;;22.75;34.29;101741.25;5065610;28;20035;-42
2021/12/21 07:34:22;;;;;;;151.45;105.88;;;;;;;22.65;34.76;101747.03;5065542;28;20097;-43
2021/12/21 07:36:50;;;;;;;154.15;109.45;;;;;;;22.66;34.88;101751.44;5066004;28;20035;-44
2021/12/21 07:39:19;;;;;;;150.23;107.97;;;;;;;22.70;34.50;101765.47;5065591;28;20431;-44
2021/12/21 07:41:48;;;;;;;157.52;107.20;;;;;;;22.61;35.07;101780.06;5065616;28;20501;-44
2021/12/21 07:44:16;;;;;;;165.02;111.55;;;;;;;22.71;34.56;101788.19;5065787;28;21043;-44
2021/12/21 07:46:44;;;;;;;159.57;108.70;;;;;;;22.73;34.75;101781.28;5065223;28;20032;-44
2021/12/21 07:49:13;;;;;;;158.23;110.63;;;;;;;22.65;34.62;101791.50;5065430;28;20028;-43
2021/12/21 07:51:40;;;;;;;163.55;113.22;;;;;;;22.78;34.36;101803.25;5065402;28;20024;-43
2021/12/21 07:54:08;;;;;;;166.43;113.30;;;;;;;22.77;34.28;101801.47;5064786;28;20024;-43
2021/12/21 07:56:37;;;;;;;165.80;113.78;;;;;;;22.64;34.44;101787.09;5065372;28;20424;-44
2021/12/21 07:59:06;;;;;;;159.52;111.00;;;;;;;22.75;34.33;101811.00;5065585;28;20028;-44
2021/12/21 08:01:34;;;;;;;161.93;110.65;;;;;;;22.72;34.70;101811.78;5065422;28;20027;-43
2021/12/21 08:04:02;;;;;;;158.40;109.93;;;;;;;22.69;34.39;101801.22;5063696;28;20513;-44
2021/12/21 08:06:33;;;;;;;149.65;105.90;;;;;;;22.73;34.50;101807.44;5065458;28;20766;-45
2021/12/21 08:09:02;;;;;;;156.25;107.00;;;;;;;22.71;34.54;101793.41;5064911;28;20035;-44
2021/12/21 08:14:03;;;;;;;160.15;111.10;;;;;;;22.66;34.54;101797.63;5065304;28;20028;-44
2021/12/21 08:16:31;;;;;;;160.00;110.32;;;;;;;22.74;34.28;101809.22;5065185;28;20094;-42
2021/12/21 08:18:59;;;;;;;159.38;111.70;;;;;;;22.72;34.35;101797.81;5064683;28;20029;-43
2021/12/21 08:21:29;;;;;;;160.98;109.40;;;;;;;22.67;34.33;101792.44;5065560;28;20101;-44
2021/12/21 08:23:57;;;;;;;157.02;110.57;;;;;;;22.74;34.21;101793.53;5065543;28;20134;-45
2021/12/21 08:26:26;;;;;;;161.35;112.43;;;;;;;22.85;34.25;101793.84;5065025;28;20499;-43
2021/12/21 08:28:54;;;;;;;158.75;112.50;;;;;;;22.81;34.04;101790.28;5064748;28;20029;-43
2021/12/21 08:31:23;;;;;;;163.35;112.40;;;;;;;22.77;34.31;101786.66;5046896;28;20032;-43
2021/12/21 08:33:51;;;;;;;159.30;110.50;;;;;;;22.61;34.44;101785.28;5064472;28;20040;-44
2021/12/21 08:36:20;;;;;;;148.50;105.47;;;;;;;22.57;34.33;101788.63;5064477;28;20070;-45
2021/12/21 08:38:49;;;;;;;151.25;103.25;;;;;;;22.66;33.98;101781.94;5064755;28;20025;-43
2021/12/21 08:41:20;;;;;;;151.50;100.90;;;;;;;22.61;34.16;101774.84;5064533;28;20031;-42
2021/12/21 08:43:49;;;;;;;146.20;102.28;;;;;;;22.62;34.05;101770.47;5064514;28;20025;-44
2021/12/21 08:46:17;;;;;;;146.02;100.65;;;;;;;22.64;34.26;101776.66;5064617;28;20433;-42
2021/12/21 08:48:47;;;;;;;143.82;101.05;;;;;;;22.63;34.00;101763.53;5064296;28;20039;-43
2021/12/21 08:51:15;;;;;;;144.35;98.50;;;;;;;22.59;34.39;101773.91;5063884;28;20028;-43
2021/12/21 08:53:44;;;;;;;141.27;98.60;;;;;;;22.38;34.58;101774.06;5063844;28;20041;-43
2021/12/21 08:56:13;;;;;;;137.20;95.00;;;;;;;22.53;34.48;101781.53;5063894;28;20486;-43
2021/12/21 08:58:41;;;;;;;140.27;97.43;;;;;;;22.54;34.34;101791.16;5062982;28;20051;-43
2021/12/21 09:01:10;;;;;;;145.32;100.45;;;;;;;22.49;34.36;101800.59;5064393;28;20059;-43
2021/12/21 09:03:39;;;;;;;146.68;100.07;;;;;;;22.48;34.49;101811.91;5063666;28;20043;-43
2021/12/21 09:06:07;;;;;;;138.85;96.47;;;;;;;22.69;34.00;101821.25;5061479;28;20081;-43
2021/12/21 09:08:36;;;;;;;140.70;95.80;;;;;;;22.50;34.58;101817.16;5061899;28;20643;-45
2021/12/21 09:11:05;;;;;;;141.65;95.85;;;;;;;22.58;34.22;101824.41;5063382;28;20056;-43
2021/12/21 09:13:34;;;;;;;131.27;93.50;;;;;;;22.63;34.04;101823.69;5063652;28;20059;-43
2021/12/21 09:16:03;;;;;;;134.02;94.97;;;;;;;22.69;34.07;101829.09;5063702;28;20020;-45
2021/12/21 09:18:32;;;;;;;139.32;97.95;;;;;;;22.65;33.90;101835.97;5064455;28;20417;-43
2021/12/21 09:21:00;;;;;;;134.93;94.47;;;;;;;22.53;33.92;101827.72;5063850;28;20028;-44
2021/12/21 09:23:29;;;;;;;134.77;96.32;;;;;;;22.60;34.15;101832.31;5063930;28;20082;-42
2021/12/21 09:25:58;;;;;;;134.27;94.18;;;;;;;22.68;34.18;101837.78;5063878;28;20206;-43
2021/12/21 09:28:26;;;;;;;146.18;98.60;;;;;;;22.76;33.92;101833.69;5063332;28;20170;-42
2021/12/21 09:30:55;;;;;;;155.68;101.90;;;;;;;22.77;33.94;101835.47;5063472;28;20032;-43
2021/12/21 09:33:24;;;;;;;157.65;103.57;;;;;;;22.76;34.15;101831.09;5061686;28;20036;-45
2021/12/21 09:35:53;;;;;;;164.27;108.13;;;;;;;22.80;34.12;101832.06;5063442;28;20135;-44
2021/12/21 09:38:22;;;;;;;151.38;100.72;;;;;;;22.75;34.13;101824.06;5063414;28;20035;-43
2021/12/21 09:40:54;;;;;;;145.48;99.07;;;;;;;22.74;33.88;101827.53;5063409;28;20048;-45
2021/12/21 09:43:23;;;;;;;142.20;91.50;;;;;;;22.72;33.92;101832.72;5063518;28;20046;-47
2021/12/21 09:45:51;;;;;;;132.15;89.45;;;;;;;22.83;33.76;101834.78;5063122;28;20048;-42
2021/12/21 09:48:22;;;;;;;127.72;86.28;;;;;;;22.77;34.11;101835.47;5063437;28;20127;-43
2021/12/21 09:50:50;;;;;;;121.60;84.45;;;;;;;22.70;33.87;101836.09;5063452;28;20085;-44
2021/12/21 09:53:19;;;;;;;115.63;79.90;;;;;;;22.71;33.66;101836.16;5061960;28;20074;-43
2021/12/21 09:55:48;;;;;;;114.30;77.97;;;;;;;22.83;33.87;101825.22;5061654;28;20028;-42
2021/12/21 09:58:17;;;;;;;105.80;72.40;;;;;;;22.64;33.98;101828.94;5062574;28;20446;-43
2021/12/21 10:00:46;;;;;;;104.53;70.13;;;;;;;22.73;34.01;101834.50;5061681;28;20032;-43
2021/12/21 10:03:14;;;;;;;98.22;66.30;;;;;;;22.69;34.04;101831.72;5062929;28;20036;-45
2021/12/21 10:05:45;;;;;;;92.40;63.17;;;;;;;22.73;34.01;101828.34;5063181;28;20063;-45
2021/12/21 10:08:16;;;;;;;87.57;60.10;;;;;;;22.74;33.57;101823.19;5063142;28;20060;-44
2021/12/21 10:10:50;;;;;;;83.72;57.67;;;;;;;22.83;33.26;101825.22;5062811;28;20048;-45
2021/12/21 10:13:19;;;;;;;;;;;;;;;23.10;33.00;101818.13;5063664;28;20040;-43
2021/12/21 10:15:53;;;;;;;77.60;53.00;;;;;;;22.94;33.51;101816.81;5064534;28;19916;-43
2021/12/21 10:18:29;;;;;;;73.60;49.38;;;;;;;22.92;33.28;101832.44;5069771;28;20419;-43
2021/12/21 10:21:00;;;;;;;66.10;47.03;;;;;;;22.92;33.37;101828.09;5069615;28;20032;-42
2021/12/21 10:23:31;;;;;;;65.18;45.03;;;;;;;22.81;33.51;101823.38;5070093;28;20077;-43
2021/12/21 10:26:03;;;;;;;63.85;43.00;;;;;;;22.89;33.47;101828.00;5069628;28;20033;-43
2021/12/21 10:28:38;;;;;;;57.83;40.78;;;;;;;22.89;33.25;101820.16;5069067;28;20036;-43
2021/12/21 10:31:12;;;;;;;56.67;39.10;;;;;;;22.85;33.70;101813.03;5069247;28;20055;-43
2021/12/21 10:33:45;;;;;;;54.00;35.67;;;;;;;22.99;33.19;101799.53;5069243;28;20113;-45
2021/12/21 10:36:15;;;;;;;50.92;36.22;;;;;;;22.92;33.16;101801.03;5069090;28;20098;-42
2021/12/21 10:38:51;;;;;;;48.60;34.30;;;;;;;22.89;33.43;101803.59;5069291;28;20287;-42
2021/12/21 10:41:28;;;;;;;47.67;32.83;;;;;;;22.62;33.56;101778.31;5058668;28;20102;-43
2021/12/21 10:44:01;;;;;;;48.60;31.75;;;;;;;22.75;33.59;101817.09;5069889;28;20478;-43
2021/12/21 10:46:31;;;;;;;42.08;29.15;;;;;;;22.86;33.34;101821.78;5069511;28;20184;-43
2021/12/21 10:49:10;;;;;;;41.22;27.95;;;;;;;22.94;33.31;101828.13;5069325;28;20115;-42
2021/12/21 10:51:52;;;;;;;41.05;27.80;;;;;;;22.90;33.46;101835.00;5069382;28;20028;-43
2021/12/21 10:54:30;;;;;;;40.28;27.00;;;;;;;22.94;33.37;101835.13;5069233;28;20029;-43
2021/12/21 10:57:01;;;;;;;38.92;26.42;;;;;;;22.98;33.03;101832.63;5068089;28;20044;-43
2021/12/21 10:59:35;;;;;;;35.63;25.55;;;;;;;22.90;33.43;101827.16;5068990;28;20102;-44
2021/12/21 11:02:27;;;;;;;33.60;23.40;;;;;;;22.96;33.07;101822.97;5069322;28;20032;-42
2021/12/21 11:05:06;;;;;;;30.23;22.27;;;;;;;22.97;33.15;101811.66;5054013;28;20032;-43
2021/12/21 11:07:51;;;;;;;29.52;21.27;;;;;;;22.98;32.97;101806.47;5067758;28;20119;-43
2021/12/21 11:10:25;;;;;;;29.92;20.88;;;;;;;22.99;33.15;101795.16;5067636;28;20485;-43
2021/12/21 11:13:00;;;;;;;26.02;18.98;;;;;;;22.99;32.94;101796.91;5069103;28;20124;-43
2021/12/21 11:15:33;;;;;;;27.23;18.83;;;;;;;22.92;33.03;101798.41;5069073;28;20056;-43
2021/12/21 11:18:07;;;;;;;25.10;18.52;;;;;;;22.93;32.84;101797.56;5058185;28;20036;-43
2021/12/21 11:20:37;;;;;;;23.85;17.92;;;;;;;22.87;33.17;101795.66;5069064;28;20032;-44
2021/12/21 11:23:06;;;;;;;24.50;17.80;;;;;;;23.04;32.69;101783.13;5069070;28;20094;-44
2021/12/21 11:25:36;;;;;;;24.33;17.27;;;;;;;23.03;32.95;101772.59;5069332;28;20447;-44
2021/12/21 11:28:05;;;;;;;24.02;16.88;;;;;;;23.02;32.74;101776.03;5066377;28;20031;-43
2021/12/21 11:30:35;;;;;;;22.77;16.33;;;;;;;23.03;32.76;101777.81;5065877;28;20048;-44
2021/12/21 11:33:07;;;;;;;19.27;14.77;;;;;;;22.97;32.99;101775.91;5065419;28;20137;-43
2021/12/21 11:38:10;;;;;;;21.98;15.07;;;;;;;22.97;33.07;101769.81;5065761;28;20059;-43
2021/12/21 11:40:42;;;;;;;22.17;14.52;;;;;;;22.94;33.04;101770.56;5065942;28;20021;-43
2021/12/21 11:43:22;;;;;;;20.15;13.95;;;;;;;22.99;33.20;101771.63;5065849;28;20033;-42
2021/12/21 11:46:13;;;;;;;17.67;13.13;;;;;;;22.96;33.11;101773.25;5065576;28;20071;-43
2021/12/21 11:48:50;;;;;;;16.67;11.52;;;;;;;22.95;32.90;101780.19;5064254;28;20595;-44
2021/12/21 11:51:23;;;;;;;14.82;11.60;;;;;;;22.98;32.99;101777.69;5065332;28;20032;-43
2021/12/21 11:53:53;;;;;;;18.00;11.75;;;;;;;22.94;33.24;101777.56;5065284;28;20216;-44
2021/12/21 11:56:24;;;;;;;15.30;10.88;;;;;;;22.78;33.26;101779.69;5065308;28;20031;-42
2021/12/21 11:58:55;;;;;;;16.77;11.95;;;;;;;22.89;33.10;101778.28;5065709;28;20169;-42
2021/12/21 12:01:26;;;;;;;13.07;9.85;;;;;;;22.84;33.18;101774.63;5065440;28;20102;-43
2021/12/21 12:03:59;;;;;;;17.23;10.63;;;;;;;22.84;33.19;101771.16;5065385;28;20037;-43
2021/12/21 12:06:29;;;;;;;13.15;9.32;;;;;;;22.85;33.06;101760.72;5065454;28;20119;-42
2021/12/21 12:09:05;;;;;;;12.65;9.52;;;;;;;22.89;33.26;101754.75;5063944;28;20052;-43
2021/12/21 12:11:36;;;;;;;12.85;9.65;;;;;;;22.85;32.80;101757.22;5064755;28;20102;-43
2021/12/21 12:14:08;;;;;;;13.10;9.25;;;;;;;22.98;32.86;101750.66;5063929;28;20869;-44
2021/12/21 12:16:51;;;;;;;12.45;8.90;;;;;;;22.97;32.78;101736.66;5065456;28;20024;-44
2021/12/21 12:19:27;;;;;;;10.73;8.15;;;;;;;22.86;33.02;101735.47;5065030;28;20481;-44